createdAt,value
2018-03-21T00:00:25.857Z,4.90
2018-03-21T00:01:25.872Z,8.00
2018-03-21T00:02:25.895Z,7.80
2018-03-21T00:03:25.906Z,6.90
2018-03-21T00:04:25.924Z,6.50
2018-03-21T00:05:25.947Z,9.00
2018-03-21T00:06:25.953Z,9.10
2018-03-21T00:07:25.971Z,5.50
2018-03-21T00:08:25.995Z,7.30
2018-03-21T00:09:26.004Z,5.10
2018-03-21T00:10:26.023Z,6.60
2018-03-21T00:11:26.039Z,5.60
2018-03-21T00:12:26.054Z,6.10
2018-03-21T00:13:26.073Z,7.80
2018-03-21T00:14:26.085Z,6.30
2018-03-21T00:15:26.102Z,7.40
2018-03-21T00:16:26.122Z,6.30
2018-03-21T00:17:26.138Z,7.60
2018-03-21T00:18:26.156Z,8.40
2018-03-21T00:19:26.171Z,6.70
2018-03-21T00:20:26.184Z,7.10
2018-03-21T00:21:26.206Z,5.90
2018-03-21T00:22:26.217Z,7.00
2018-03-21T00:23:26.232Z,6.20
2018-03-21T00:24:26.256Z,6.20
2018-03-21T00:25:26.263Z,8.00
2018-03-21T00:26:26.288Z,6.50
2018-03-21T00:27:26.304Z,9.10
2018-03-21T00:28:26.312Z,6.40
2018-03-21T00:29:26.331Z,11.00
2018-03-21T00:30:26.350Z,4.80
2018-03-21T00:31:26.362Z,7.80
2018-03-21T00:32:26.385Z,7.70
2018-03-21T00:33:26.401Z,8.00
2018-03-21T00:34:26.413Z,7.90
2018-03-21T00:35:26.435Z,7.40
2018-03-21T00:36:26.444Z,6.90
2018-03-21T00:37:26.462Z,8.10
2018-03-21T00:38:26.482Z,7.20
2018-03-21T00:39:26.495Z,7.20
2018-03-21T00:40:26.513Z,8.50
2018-03-21T00:41:26.533Z,5.80
2018-03-21T00:42:26.544Z,6.30
2018-03-21T00:43:26.561Z,8.50
2018-03-21T00:44:26.582Z,6.90
2018-03-21T00:45:26.596Z,6.10
2018-03-21T00:46:26.608Z,9.20
2018-03-21T00:47:26.632Z,8.80
2018-03-21T00:48:26.637Z,8.70
2018-03-21T00:49:26.657Z,10.00
2018-03-21T00:50:26.675Z,9.50
2018-03-21T00:51:26.687Z,6.10
2018-03-21T00:52:26.712Z,8.70
2018-03-21T00:53:26.725Z,7.50
2018-03-21T00:54:26.739Z,9.90
2018-03-21T00:55:26.757Z,7.20
2018-03-21T00:56:26.771Z,9.60
2018-03-21T00:57:26.785Z,8.40
2018-03-21T00:58:26.808Z,7.50
2018-03-21T00:59:26.820Z,8.10
2018-03-21T01:00:26.839Z,5.90
2018-03-21T01:01:26.858Z,7.50
2018-03-21T01:02:26.867Z,6.70
2018-03-21T01:03:26.886Z,7.90
2018-03-21T01:04:26.906Z,8.60
2018-03-21T01:05:26.915Z,11.80
2018-03-21T01:06:26.939Z,11.30
2018-03-21T01:07:26.955Z,7.70
2018-03-21T01:08:26.962Z,9.70
2018-03-21T01:09:26.993Z,7.10
2018-03-21T01:10:26.995Z,10.80
2018-03-21T01:11:27.015Z,8.50
2018-03-21T01:12:27.033Z,8.40
2018-03-21T01:13:27.051Z,9.50
2018-03-21T01:14:27.065Z,9.90
2018-03-21T01:15:27.082Z,7.30
2018-03-21T01:16:27.097Z,10.40
2018-03-21T01:17:27.117Z,10.20
2018-03-21T01:18:27.128Z,6.90
2018-03-21T01:19:27.151Z,6.20
2018-03-21T01:20:27.160Z,8.30
2018-03-21T01:21:27.178Z,7.30
2018-03-21T01:22:27.196Z,7.20
2018-03-21T01:23:27.208Z,8.10
2018-03-21T01:24:27.232Z,7.00
2018-03-21T01:25:27.246Z,9.00
2018-03-21T01:26:27.258Z,9.80
2018-03-21T01:27:27.273Z,7.30
2018-03-21T01:28:27.293Z,8.00
2018-03-21T01:29:27.311Z,7.30
2018-03-21T01:30:27.329Z,8.60
2018-03-21T01:31:27.346Z,10.20
2018-03-21T01:32:27.353Z,7.50
2018-03-21T01:33:27.379Z,9.10
2018-03-21T01:34:27.389Z,8.50
2018-03-21T01:35:27.402Z,7.40
2018-03-21T01:36:27.429Z,7.80
2018-03-21T01:37:27.435Z,7.20
2018-03-21T01:38:27.458Z,8.40
2018-03-21T01:39:27.476Z,10.40
2018-03-21T01:40:27.484Z,11.80
2018-03-21T01:41:27.509Z,8.10
2018-03-21T01:42:27.516Z,10.20
2018-03-21T01:43:27.540Z,9.10
2018-03-21T01:44:27.555Z,9.90
2018-03-21T01:45:27.567Z,10.10
2018-03-21T01:46:27.581Z,7.30
2018-03-21T01:47:27.597Z,9.40
2018-03-21T01:48:27.621Z,7.30
2018-03-21T01:49:27.634Z,6.80
2018-03-21T01:50:27.657Z,11.10
2018-03-21T01:51:27.669Z,10.30
2018-03-21T01:52:27.680Z,8.10
2018-03-21T01:53:27.697Z,9.70
2018-03-21T01:54:27.714Z,8.90
2018-03-21T01:55:27.730Z,9.00
2018-03-21T01:56:27.750Z,6.10
2018-03-21T01:57:27.764Z,6.40
2018-03-21T01:58:27.777Z,9.70
2018-03-21T01:59:27.792Z,8.20
2018-03-21T02:00:27.811Z,7.70
2018-03-21T02:01:27.830Z,8.90
2018-03-21T02:02:27.842Z,6.50
2018-03-21T02:03:27.864Z,7.20
2018-03-21T02:04:27.873Z,6.30
2018-03-21T02:05:27.892Z,8.80
2018-03-21T02:06:27.905Z,6.80
2018-03-21T02:07:27.921Z,9.30
2018-03-21T02:08:27.945Z,6.70
2018-03-21T02:09:27.960Z,9.90
2018-03-21T02:10:27.972Z,10.70
2018-03-21T02:11:27.995Z,9.40
2018-03-21T02:12:28.003Z,11.20
2018-03-21T02:13:28.021Z,7.40
2018-03-21T02:14:28.039Z,7.90
2018-03-21T02:15:28.054Z,7.40
2018-03-21T02:16:28.067Z,6.70
2018-03-21T02:17:28.086Z,10.40
2018-03-21T02:18:28.105Z,9.00
2018-03-21T02:19:28.123Z,5.30
2018-03-21T02:20:28.136Z,6.60
2018-03-21T02:21:28.153Z,7.90
2018-03-21T02:22:28.173Z,7.10
2018-03-21T02:23:28.184Z,10.70
2018-03-21T02:24:28.203Z,10.90
2018-03-21T02:25:28.222Z,7.10
2018-03-21T02:26:28.229Z,7.60
2018-03-21T02:27:28.251Z,6.40
2018-03-21T02:28:28.264Z,8.50
2018-03-21T02:29:28.279Z,10.90
2018-03-21T02:30:28.302Z,7.00
2018-03-21T02:31:28.310Z,7.90
2018-03-21T02:32:28.331Z,8.40
2018-03-21T02:33:28.348Z,8.30
2018-03-21T02:34:28.366Z,8.40
2018-03-21T02:35:28.384Z,7.60
2018-03-21T02:36:28.390Z,8.90
2018-03-21T02:37:28.415Z,7.60
2018-03-21T02:38:28.426Z,7.00
2018-03-21T02:39:28.444Z,8.40
2018-03-21T02:40:28.457Z,7.40
2018-03-21T02:41:28.471Z,9.80
2018-03-21T02:42:28.495Z,7.20
2018-03-21T02:43:28.509Z,9.40
2018-03-21T02:44:28.525Z,8.30
2018-03-21T02:45:28.544Z,9.40
2018-03-21T02:46:28.551Z,11.60
2018-03-21T02:47:28.569Z,10.90
2018-03-21T02:48:28.589Z,7.70
2018-03-21T02:49:28.603Z,11.60
2018-03-21T02:50:28.615Z,8.60
2018-03-21T02:51:28.633Z,8.50
2018-03-21T02:52:28.654Z,8.70
2018-03-21T02:53:28.664Z,10.10
2018-03-21T02:54:28.687Z,8.70
2018-03-21T02:55:28.698Z,8.70
2018-03-21T02:56:28.718Z,7.00
2018-03-21T02:57:28.739Z,9.70
2018-03-21T02:58:28.745Z,11.60
2018-03-21T02:59:28.766Z,9.50
2018-03-21T03:00:28.778Z,12.30
2018-03-21T03:01:28.798Z,7.50
2018-03-21T03:02:28.822Z,11.30
2018-03-21T03:03:28.826Z,10.90
2018-03-21T03:04:28.843Z,12.70
2018-03-21T03:05:28.863Z,10.00
2018-03-21T03:06:28.873Z,8.00
2018-03-21T03:07:28.897Z,8.60
2018-03-21T03:08:28.904Z,10.50
2018-03-21T03:09:28.934Z,9.10
2018-03-21T03:10:28.936Z,9.70
2018-03-21T03:11:28.953Z,10.60
2018-03-21T03:12:28.980Z,10.10
2018-03-21T03:13:28.985Z,8.00
2018-03-21T03:14:29.008Z,7.50
2018-03-21T03:15:29.024Z,8.20
2018-03-21T03:16:29.031Z,9.70
2018-03-21T03:17:29.055Z,13.30
2018-03-21T03:18:29.063Z,11.60
2018-03-21T03:19:29.082Z,9.60
2018-03-21T03:20:29.110Z,8.10
2018-03-21T03:21:29.114Z,8.80
2018-03-21T03:22:29.132Z,8.80
2018-03-21T03:23:29.149Z,7.90
2018-03-21T03:24:29.161Z,10.70
2018-03-21T03:25:29.180Z,12.70
2018-03-21T03:26:29.200Z,9.10
2018-03-21T03:27:29.213Z,9.20
2018-03-21T03:28:29.225Z,9.80
2018-03-21T03:29:29.239Z,10.30
2018-03-21T03:30:29.263Z,9.90
2018-03-21T03:31:29.273Z,9.80
2018-03-21T03:32:29.296Z,10.40
2018-03-21T03:33:29.309Z,9.80
2018-03-21T03:34:29.318Z,14.30
2018-03-21T03:35:29.342Z,11.00
2018-03-21T03:36:29.350Z,10.60
2018-03-21T03:37:29.369Z,10.00
2018-03-21T03:38:29.385Z,8.30
2018-03-21T03:39:29.402Z,9.00
2018-03-21T03:40:29.421Z,10.70
2018-03-21T03:41:29.434Z,7.70
2018-03-21T03:42:29.449Z,11.30
2018-03-21T03:43:29.468Z,10.40
2018-03-21T03:44:29.481Z,11.30
2018-03-21T03:45:29.495Z,9.10
2018-03-21T03:46:29.514Z,9.40
2018-03-21T03:47:29.528Z,10.00
2018-03-21T03:48:29.542Z,10.00
2018-03-21T03:49:29.561Z,12.70
2018-03-21T03:50:29.573Z,10.60
2018-03-21T03:51:29.595Z,10.10
2018-03-21T03:52:29.612Z,7.70
2018-03-21T03:53:29.620Z,9.70
2018-03-21T03:54:29.642Z,11.50
2018-03-21T03:55:29.659Z,7.70
2018-03-21T03:56:29.666Z,10.50
2018-03-21T03:57:29.691Z,11.20
2018-03-21T03:58:29.698Z,9.70
2018-03-21T03:59:29.715Z,10.60
2018-03-21T04:00:29.740Z,13.10
2018-03-21T04:01:29.746Z,13.70
2018-03-21T04:02:29.770Z,9.30
2018-03-21T04:03:29.786Z,11.60
2018-03-21T04:04:29.794Z,9.50
2018-03-21T04:05:29.818Z,12.00
2018-03-21T04:06:29.825Z,12.20
2018-03-21T04:07:29.843Z,13.40
2018-03-21T04:08:29.870Z,11.90
2018-03-21T04:09:29.877Z,11.50
2018-03-21T04:10:29.894Z,13.60
2018-03-21T04:11:29.909Z,9.30
2018-03-21T04:12:29.923Z,9.90
2018-03-21T04:13:29.943Z,12.20
2018-03-21T04:14:29.959Z,11.30
2018-03-21T04:15:29.970Z,13.40
2018-03-21T04:16:29.991Z,10.20
2018-03-21T04:17:30.008Z,11.00
2018-03-21T04:18:30.016Z,12.00
2018-03-21T04:19:30.036Z,11.20
2018-03-21T04:20:30.050Z,10.10
2018-03-21T04:21:30.064Z,13.40
2018-03-21T04:22:30.087Z,13.00
2018-03-21T04:23:30.095Z,12.50
2018-03-21T04:24:30.119Z,11.50
2018-03-21T04:25:30.142Z,13.20
2018-03-21T04:26:30.144Z,11.40
2018-03-21T04:27:30.166Z,13.50
2018-03-21T04:28:30.174Z,12.70
2018-03-21T04:29:30.192Z,13.10
2018-03-21T04:30:30.205Z,11.60
2018-03-21T04:31:30.221Z,11.50
2018-03-21T04:32:30.246Z,16.20
2018-03-21T04:33:30.258Z,12.20
2018-03-21T04:34:30.270Z,15.60
2018-03-21T04:35:30.292Z,17.20
2018-03-21T04:36:30.300Z,14.50
2018-03-21T04:37:30.319Z,13.70
2018-03-21T04:38:30.337Z,13.80
2018-03-21T04:39:30.356Z,17.50
2018-03-21T04:40:30.364Z,12.50
2018-03-21T04:41:30.382Z,12.30
2018-03-21T04:42:30.400Z,13.80
2018-03-21T04:43:30.410Z,12.80
2018-03-21T04:44:30.436Z,13.20
2018-03-21T04:45:30.448Z,13.20
2018-03-21T04:46:30.461Z,13.20
2018-03-21T04:47:30.483Z,11.40
2018-03-21T04:48:30.496Z,12.80
2018-03-21T04:49:30.508Z,10.00
2018-03-21T04:50:30.527Z,12.60
2018-03-21T04:51:30.537Z,12.20
2018-03-21T04:52:30.561Z,15.20
2018-03-21T04:53:30.574Z,14.00
2018-03-21T04:54:30.588Z,11.30
2018-03-21T04:55:30.601Z,12.20
2018-03-21T04:56:30.625Z,11.00
2018-03-21T04:57:30.632Z,11.40
2018-03-21T04:58:30.655Z,11.70
2018-03-21T04:59:30.671Z,10.70
2018-03-21T05:00:30.679Z,12.70
2018-03-21T05:01:30.703Z,12.00
2018-03-21T05:02:30.709Z,13.40
2018-03-21T05:03:30.731Z,10.80
2018-03-21T05:04:30.744Z,10.20
2018-03-21T05:05:30.763Z,13.30
2018-03-21T05:06:30.775Z,10.70
2018-03-21T05:07:30.791Z,11.60
2018-03-21T05:08:30.809Z,15.60
2018-03-21T05:09:30.823Z,9.80
2018-03-21T05:10:30.840Z,11.80
2018-03-21T05:11:30.853Z,14.90
2018-03-21T05:12:30.873Z,11.70
2018-03-21T05:13:30.884Z,13.00
2018-03-21T05:14:30.902Z,13.50
2018-03-21T05:15:30.968Z,10.50
2018-03-21T05:16:30.932Z,15.60
2018-03-21T05:17:30.950Z,14.20
2018-03-21T05:18:30.968Z,15.70
2018-03-21T05:19:30.978Z,14.30
2018-03-21T05:20:30.998Z,16.60
2018-03-21T05:21:31.011Z,14.20
2018-03-21T05:22:31.027Z,13.30
2018-03-21T05:23:31.044Z,15.00
2018-03-21T05:24:31.057Z,12.80
2018-03-21T05:25:31.075Z,14.70
2018-03-21T05:26:31.087Z,14.80
2018-03-21T05:27:31.100Z,17.10
2018-03-21T05:28:31.124Z,14.80
2018-03-21T05:29:31.138Z,19.20
2018-03-21T05:30:31.151Z,15.60
2018-03-21T05:31:31.175Z,14.60
2018-03-21T05:32:31.181Z,17.30
2018-03-21T05:33:31.200Z,17.50
2018-03-21T05:34:31.208Z,16.00
2018-03-21T05:35:31.224Z,14.40
2018-03-21T05:36:31.249Z,17.50
2018-03-21T05:37:31.261Z,15.80
2018-03-21T05:38:31.274Z,18.90
2018-03-21T05:39:31.295Z,17.50
2018-03-21T05:40:31.303Z,14.60
2018-03-21T05:41:31.321Z,15.80
2018-03-21T05:42:31.339Z,16.80
2018-03-21T05:43:31.354Z,19.90
2018-03-21T05:44:31.364Z,15.00
2018-03-21T05:45:31.389Z,17.10
2018-03-21T05:46:31.402Z,17.20
2018-03-21T05:47:31.419Z,19.00
2018-03-21T05:48:31.430Z,15.80
2018-03-21T05:49:31.452Z,18.30
2018-03-21T05:50:31.460Z,17.30
2018-03-21T05:51:31.475Z,18.80
2018-03-21T05:52:31.498Z,17.20
2018-03-21T05:53:31.508Z,16.30
2018-03-21T05:54:31.525Z,19.90
2018-03-21T05:55:31.541Z,17.20
2018-03-21T05:56:31.555Z,15.50
2018-03-21T05:57:31.572Z,20.40
2018-03-21T05:58:31.585Z,16.60
2018-03-21T05:59:31.603Z,17.20
2018-03-21T06:00:31.615Z,16.40
2018-03-21T06:01:31.629Z,16.10
2018-03-21T06:02:31.648Z,18.30
2018-03-21T06:03:31.668Z,15.60
2018-03-21T06:04:31.682Z,16.40
2018-03-21T06:05:31.696Z,17.20
2018-03-21T06:06:31.712Z,17.80
2018-03-21T06:07:31.722Z,17.60
2018-03-21T06:08:31.746Z,13.80
2018-03-21T06:09:31.760Z,19.20
2018-03-21T06:10:31.771Z,16.40
2018-03-21T06:11:31.793Z,18.40
2018-03-21T06:12:31.800Z,16.30
2018-03-21T06:13:31.819Z,20.00
2018-03-21T06:14:31.837Z,18.30
2018-03-21T06:15:31.848Z,23.40
2018-03-21T06:16:31.863Z,25.10
2018-03-21T06:17:31.895Z,22.80
2018-03-21T06:18:31.893Z,23.50
2018-03-21T06:19:31.914Z,26.60
2018-03-21T06:20:31.928Z,18.30
2018-03-21T06:21:31.939Z,19.40
2018-03-21T06:22:31.958Z,23.00
2018-03-21T06:23:32.031Z,22.40
2018-03-21T06:24:32.046Z,23.70
2018-03-21T06:25:32.008Z,22.70
2018-03-21T06:26:32.028Z,26.10
2018-03-21T06:27:32.072Z,27.40
2018-03-21T06:28:32.059Z,31.10
2018-03-21T06:29:32.129Z,32.80
2018-03-21T06:30:32.104Z,24.30
2018-03-21T06:31:32.199Z,28.20
2018-03-21T06:32:32.164Z,27.90
2018-03-21T06:33:32.351Z,38.60
2018-03-21T06:34:32.181Z,28.80
2018-03-21T06:35:32.194Z,35.70
2018-03-21T06:36:32.252Z,34.50
2018-03-21T06:37:32.225Z,36.30
2018-03-21T06:38:32.249Z,38.10
2018-03-21T06:39:32.264Z,29.20
2018-03-21T06:40:32.280Z,26.80
2018-03-21T06:41:32.345Z,30.40
2018-03-21T06:42:32.323Z,25.50
2018-03-21T06:43:32.312Z,23.30
2018-03-21T06:44:32.309Z,22.60
2018-03-21T06:45:32.320Z,22.70
2018-03-21T06:46:32.327Z,20.70
2018-03-21T06:47:32.344Z,22.20
2018-03-21T06:48:32.357Z,19.50
2018-03-21T06:49:32.381Z,21.20
2018-03-21T06:50:32.387Z,19.60
2018-03-21T06:51:32.408Z,19.70
2018-03-21T06:52:32.420Z,18.40
2018-03-21T06:53:32.435Z,17.50
2018-03-21T06:54:32.451Z,18.00
2018-03-21T06:55:32.466Z,16.30
2018-03-21T06:56:32.487Z,17.30
2018-03-21T06:57:32.506Z,17.80
2018-03-21T06:58:32.511Z,19.10
2018-03-21T06:59:32.531Z,20.10
2018-03-21T07:00:32.545Z,18.90
2018-03-21T07:01:32.558Z,19.60
2018-03-21T07:02:32.604Z,17.30
2018-03-21T07:03:32.589Z,17.00
2018-03-21T07:04:32.608Z,16.10
2018-03-21T07:05:32.620Z,16.50
2018-03-21T07:06:32.640Z,16.60
2018-03-21T07:07:32.659Z,18.10
2018-03-21T07:08:32.671Z,17.40
2018-03-21T07:09:32.686Z,18.70
2018-03-21T07:10:32.703Z,23.10
2018-03-21T07:11:32.720Z,23.00
2018-03-21T07:12:32.732Z,21.80
2018-03-21T07:13:32.745Z,21.40
2018-03-21T07:14:32.768Z,20.20
2018-03-21T07:15:32.784Z,23.80
2018-03-21T07:16:32.798Z,22.30
2018-03-21T07:17:32.857Z,18.30
2018-03-21T07:18:32.824Z,17.80
2018-03-21T07:19:32.843Z,18.00
2018-03-21T07:20:32.856Z,19.20
2018-03-21T07:21:32.880Z,17.20
2018-03-21T07:22:32.888Z,22.00
2018-03-21T07:23:32.908Z,24.70
2018-03-21T07:24:32.927Z,21.60
2018-03-21T07:25:32.935Z,23.70
2018-03-21T07:26:32.952Z,26.20
2018-03-21T07:27:32.969Z,21.70
2018-03-21T07:28:32.990Z,25.70
2018-03-21T07:29:33.000Z,33.10
2018-03-21T07:30:33.019Z,23.00
2018-03-21T07:31:33.035Z,19.60
2018-03-21T07:32:33.049Z,20.20
2018-03-21T07:33:33.069Z,21.10
2018-03-21T07:34:33.080Z,21.60
2018-03-21T07:35:33.099Z,22.70
2018-03-21T07:36:33.121Z,20.50
2018-03-21T07:37:33.126Z,29.70
2018-03-21T07:38:33.150Z,21.50
2018-03-21T07:39:33.162Z,29.50
2018-03-21T07:40:33.179Z,24.30
2018-03-21T07:41:33.199Z,34.70
2018-03-21T07:42:33.211Z,49.70
2018-03-21T07:43:33.225Z,37.10
2018-03-21T07:44:33.244Z,35.80
2018-03-21T07:45:33.256Z,75.10
2018-03-21T07:46:33.274Z,59.90
2018-03-21T07:47:33.291Z,40.60
2018-03-21T07:48:33.316Z,58.00
2018-03-21T07:49:33.319Z,30.90
2018-03-21T07:50:33.346Z,32.30
2018-03-21T07:51:33.356Z,39.00
2018-03-21T07:52:33.370Z,25.60
2018-03-21T07:53:33.388Z,32.70
2018-03-21T07:54:33.403Z,26.70
2018-03-21T07:55:33.418Z,24.20
2018-03-21T07:56:33.437Z,34.20
2018-03-21T07:57:33.452Z,44.30
2018-03-21T07:58:33.474Z,24.70
2018-03-21T07:59:33.480Z,29.10
2018-03-21T08:00:33.505Z,29.70
2018-03-21T08:01:33.520Z,30.30
2018-03-21T08:02:33.530Z,48.00
2018-03-21T08:03:33.553Z,28.70
2018-03-21T08:04:33.567Z,27.30
2018-03-21T08:05:33.627Z,30.80
2018-03-21T08:06:33.594Z,24.90
2018-03-21T08:07:33.613Z,25.90
2018-03-21T08:08:33.633Z,26.40
2018-03-21T08:09:33.646Z,25.60
2018-03-21T08:10:33.665Z,24.00
2018-03-21T08:11:33.684Z,22.70
2018-03-21T08:12:33.696Z,28.40
2018-03-21T08:13:33.719Z,30.70
2018-03-21T08:14:33.728Z,23.50
2018-03-21T08:15:33.750Z,25.70
2018-03-21T08:16:33.759Z,26.00
2018-03-21T08:17:33.782Z,23.40
2018-03-21T08:18:33.797Z,28.10
2018-03-21T08:19:33.814Z,22.30
2018-03-21T08:20:33.833Z,22.80
2018-03-21T08:21:33.849Z,27.20
2018-03-21T08:22:33.862Z,25.30
2018-03-21T08:23:33.874Z,21.00
2018-03-21T08:24:33.900Z,20.50
2018-03-21T08:25:33.914Z,21.70
2018-03-21T08:26:33.925Z,20.20
2018-03-21T08:27:33.949Z,20.50
2018-03-21T08:28:33.957Z,18.60
2018-03-21T08:29:33.978Z,22.30
2018-03-21T08:30:33.997Z,20.60
2018-03-21T08:31:34.009Z,20.00
2018-03-21T08:32:34.034Z,19.70
2018-03-21T08:33:34.043Z,20.30
2018-03-21T08:34:34.067Z,22.70
2018-03-21T08:35:34.087Z,21.10
2018-03-21T08:36:34.093Z,21.40
2018-03-21T08:37:34.119Z,21.00
2018-03-21T08:38:34.131Z,20.70
2018-03-21T08:39:34.152Z,21.70
2018-03-21T08:40:34.202Z,23.00
2018-03-21T08:41:34.183Z,25.40
2018-03-21T08:42:34.200Z,22.80
2018-03-21T08:43:34.235Z,21.10
2018-03-21T08:44:34.237Z,19.90
2018-03-21T08:45:34.252Z,23.50
2018-03-21T08:46:34.266Z,24.60
2018-03-21T08:47:34.293Z,23.90
2018-03-21T08:48:34.303Z,23.60
2018-03-21T08:49:34.319Z,20.80
2018-03-21T08:50:34.337Z,21.10
2018-03-21T08:51:34.405Z,22.30
2018-03-21T08:52:34.375Z,19.30
2018-03-21T08:53:34.385Z,22.10
2018-03-21T08:54:34.408Z,21.20
2018-03-21T08:55:34.419Z,19.90
2018-03-21T08:56:34.443Z,21.50
2018-03-21T08:57:34.453Z,24.70
2018-03-21T08:58:34.480Z,22.00
2018-03-21T08:59:34.495Z,21.10
2018-03-21T09:00:34.504Z,21.10
2018-03-21T09:01:34.529Z,19.00
2018-03-21T09:02:34.538Z,21.80
2018-03-21T09:03:34.556Z,18.90
2018-03-21T09:04:34.580Z,22.10
2018-03-21T09:05:34.596Z,19.10
2018-03-21T09:06:34.609Z,20.10
2018-03-21T09:07:34.633Z,19.60
2018-03-21T09:08:34.647Z,20.90
2018-03-21T09:09:34.668Z,20.90
2018-03-21T09:10:34.677Z,21.30
2018-03-21T09:11:34.697Z,20.80
2018-03-21T09:12:34.719Z,21.20
2018-03-21T09:13:34.738Z,20.90
2018-03-21T09:14:34.746Z,19.50
2018-03-21T09:15:34.769Z,18.40
2018-03-21T09:16:34.785Z,17.50
2018-03-21T09:17:34.801Z,18.20
2018-03-21T09:18:34.826Z,18.00
2018-03-21T09:19:34.843Z,14.90
2018-03-21T09:20:34.879Z,17.20
2018-03-21T09:21:34.875Z,17.20
2018-03-21T09:22:34.895Z,17.70
2018-03-21T09:23:34.907Z,17.40
2018-03-21T09:24:34.934Z,17.20
2018-03-21T09:25:34.950Z,20.20
2018-03-21T09:26:34.969Z,13.70
2018-03-21T09:27:34.990Z,15.70
2018-03-21T09:28:35.000Z,15.50
2018-03-21T09:29:35.020Z,16.30
2018-03-21T09:30:35.042Z,16.00
2018-03-21T09:31:35.056Z,13.70
2018-03-21T09:32:35.077Z,13.30
2018-03-21T09:33:35.100Z,12.70
2018-03-21T09:34:35.109Z,13.90
2018-03-21T09:35:35.128Z,15.60
2018-03-21T09:36:35.155Z,15.90
2018-03-21T09:37:35.166Z,15.00
2018-03-21T09:38:35.192Z,16.20
2018-03-21T09:39:35.211Z,17.30
2018-03-21T09:40:35.223Z,18.10
2018-03-21T09:41:35.250Z,17.10
2018-03-21T09:42:35.260Z,16.40
2018-03-21T09:43:35.281Z,14.80
2018-03-21T09:44:35.307Z,13.30
2018-03-21T09:45:35.318Z,10.50
2018-03-21T09:46:35.340Z,16.10
2018-03-21T09:47:35.359Z,13.70
2018-03-21T09:48:35.387Z,15.50
2018-03-21T09:49:35.397Z,14.70
2018-03-21T09:50:35.413Z,12.10
2018-03-21T09:51:35.436Z,14.60
2018-03-21T09:52:35.447Z,14.20
2018-03-21T09:53:35.474Z,12.10
2018-03-21T09:54:35.491Z,12.40
2018-03-21T09:55:35.514Z,11.70
2018-03-21T09:56:35.533Z,17.20
2018-03-21T09:57:35.548Z,13.10
2018-03-21T09:58:35.567Z,13.30
2018-03-21T09:59:35.592Z,10.90
2018-03-21T10:00:35.607Z,10.40
2018-03-21T10:01:35.623Z,13.70
2018-03-21T10:02:35.651Z,12.30
2018-03-21T10:03:35.666Z,10.40
2018-03-21T10:04:35.693Z,11.20
2018-03-21T10:05:35.713Z,12.00
2018-03-21T10:06:35.724Z,11.70
2018-03-21T10:07:35.746Z,11.50
2018-03-21T10:08:35.774Z,12.90
2018-03-21T10:09:35.787Z,13.80
2018-03-21T10:10:35.810Z,12.30
2018-03-21T10:11:35.829Z,11.90
2018-03-21T10:12:35.848Z,11.70
2018-03-21T10:13:35.871Z,13.00
2018-03-21T10:14:35.894Z,10.10
2018-03-21T10:15:35.911Z,10.20
2018-03-21T10:16:35.944Z,12.30
2018-03-21T10:17:35.953Z,13.40
2018-03-21T10:18:35.975Z,10.20
2018-03-21T10:19:35.995Z,11.80
2018-03-21T10:20:36.014Z,13.10
2018-03-21T10:21:36.036Z,13.40
2018-03-21T10:22:36.052Z,8.60
2018-03-21T10:23:36.074Z,9.80
2018-03-21T10:24:36.091Z,14.50
2018-03-21T10:25:36.120Z,11.30
2018-03-21T10:26:36.132Z,11.60
2018-03-21T10:27:36.159Z,10.30
2018-03-21T10:28:36.176Z,12.30
2018-03-21T10:29:36.194Z,14.40
2018-03-21T10:30:36.217Z,12.50
2018-03-21T10:31:36.239Z,11.00
2018-03-21T10:32:36.257Z,11.70
2018-03-21T10:33:36.276Z,10.90
2018-03-21T10:34:36.332Z,14.80
2018-03-21T10:35:36.318Z,11.30
2018-03-21T10:36:36.343Z,11.50
2018-03-21T10:37:36.365Z,10.60
2018-03-21T10:38:36.375Z,11.40
2018-03-21T10:39:36.408Z,11.20
2018-03-21T10:40:36.418Z,9.70
2018-03-21T10:41:36.437Z,11.60
2018-03-21T10:42:36.465Z,12.60
2018-03-21T10:43:36.485Z,10.70
2018-03-21T10:44:36.504Z,12.20
2018-03-21T10:45:36.526Z,11.40
2018-03-21T10:46:36.547Z,11.00
2018-03-21T10:47:36.561Z,10.50
2018-03-21T10:48:36.584Z,10.40
2018-03-21T10:49:36.608Z,13.20
2018-03-21T10:50:36.619Z,11.90
2018-03-21T10:51:36.653Z,12.80
2018-03-21T10:52:39.036Z,8.50
2018-03-21T10:53:36.682Z,10.00
2018-03-21T10:54:36.710Z,8.40
2018-03-21T10:55:36.732Z,13.60
2018-03-21T10:56:36.745Z,13.40
2018-03-21T10:57:36.774Z,9.00
2018-03-21T10:58:36.789Z,11.20
2018-03-21T10:59:36.811Z,12.20
2018-03-21T11:00:36.837Z,12.20
2018-03-21T11:01:36.850Z,13.20
2018-03-21T11:02:36.868Z,14.10
2018-03-21T11:03:36.887Z,12.40
2018-03-21T11:04:36.915Z,12.40
2018-03-21T11:05:36.932Z,12.60
2018-03-21T11:06:36.949Z,10.60
2018-03-21T11:07:36.986Z,14.40
2018-03-21T11:08:36.987Z,15.60
2018-03-21T11:09:37.011Z,12.30
2018-03-21T11:10:37.033Z,16.90
2018-03-21T11:11:37.102Z,13.60
2018-03-21T11:12:37.075Z,15.20
2018-03-21T11:13:37.088Z,14.10
2018-03-21T11:14:37.109Z,15.10
2018-03-21T11:15:37.129Z,13.50
2018-03-21T11:16:37.147Z,16.90
2018-03-21T11:17:37.171Z,12.50
2018-03-21T11:18:37.192Z,12.90
2018-03-21T11:19:37.214Z,16.00
2018-03-21T11:20:37.227Z,15.00
2018-03-21T11:21:37.250Z,11.50
2018-03-21T11:22:37.272Z,12.00
2018-03-21T11:23:37.287Z,13.50
2018-03-21T11:24:37.315Z,14.00
2018-03-21T11:25:37.333Z,13.20
2018-03-21T11:26:37.352Z,15.80
2018-03-21T11:27:37.376Z,15.70
2018-03-21T11:28:37.388Z,15.60
2018-03-21T11:29:37.446Z,15.30
2018-03-21T11:30:37.449Z,13.50
2018-03-21T11:31:37.454Z,13.00
2018-03-21T11:32:37.476Z,15.20
2018-03-21T11:33:37.488Z,12.00
2018-03-21T11:34:37.509Z,14.70
2018-03-21T11:35:37.529Z,14.70
2018-03-21T11:36:37.561Z,12.70
2018-03-21T11:37:37.574Z,11.70
2018-03-21T11:38:37.591Z,11.20
2018-03-21T11:39:37.618Z,10.00
2018-03-21T11:40:37.630Z,11.20
2018-03-21T11:41:37.656Z,11.60
2018-03-21T11:42:37.676Z,12.00
2018-03-21T11:43:37.699Z,10.20
2018-03-21T11:44:37.715Z,11.30
2018-03-21T11:45:37.734Z,11.30
2018-03-21T11:46:37.756Z,11.70
2018-03-21T11:47:37.784Z,14.10
2018-03-21T11:48:37.803Z,10.80
2018-03-21T11:49:37.821Z,12.20
2018-03-21T11:50:37.845Z,12.00
2018-03-21T11:51:37.866Z,12.00
2018-03-21T11:52:37.891Z,11.50
2018-03-21T11:53:37.909Z,12.00
2018-03-21T11:54:37.935Z,11.60
2018-03-21T11:55:37.958Z,12.40
2018-03-21T11:56:37.977Z,10.10
2018-03-21T11:57:38.004Z,9.10
2018-03-21T11:58:38.024Z,10.90
2018-03-21T11:59:38.049Z,12.20
2018-03-21T12:00:38.069Z,10.60
2018-03-21T12:01:38.089Z,12.10
2018-03-21T12:02:38.119Z,12.30
2018-03-21T12:03:38.137Z,11.50
2018-03-21T12:04:38.163Z,13.70
2018-03-21T12:05:38.187Z,12.20
2018-03-21T12:06:38.214Z,11.90
2018-03-21T12:07:38.233Z,11.00
2018-03-21T12:08:38.326Z,10.20
2018-03-21T12:09:38.276Z,11.00
2018-03-21T12:10:38.296Z,10.30
2018-03-21T12:11:38.364Z,11.80
2018-03-21T12:12:38.346Z,12.00
2018-03-21T12:13:38.365Z,13.10
2018-03-21T12:14:38.386Z,12.70
2018-03-21T12:15:38.405Z,12.10
2018-03-21T12:16:38.432Z,12.40
2018-03-21T12:17:38.451Z,12.10
2018-03-21T12:18:38.474Z,13.50
2018-03-21T12:19:38.501Z,11.70
2018-03-21T12:20:38.514Z,10.80
2018-03-21T12:21:38.540Z,12.20
2018-03-21T12:22:38.560Z,12.10
2018-03-21T12:23:38.577Z,11.40
2018-03-21T12:24:38.612Z,13.10
2018-03-21T12:25:38.620Z,12.20
2018-03-21T12:26:38.648Z,12.50
2018-03-21T12:27:38.669Z,10.50
2018-03-21T12:28:38.682Z,10.90
2018-03-21T12:29:38.712Z,14.20
2018-03-21T12:30:38.723Z,13.70
2018-03-21T12:31:38.747Z,11.30
2018-03-21T12:32:38.773Z,12.20
2018-03-21T12:33:38.786Z,14.80
2018-03-21T12:34:38.813Z,11.90
2018-03-21T12:35:38.835Z,13.60
2018-03-21T12:36:38.856Z,10.20
2018-03-21T12:37:38.875Z,14.50
2018-03-21T12:38:38.891Z,13.10
2018-03-21T12:39:38.910Z,13.30
2018-03-21T12:40:38.939Z,12.40
2018-03-21T12:41:38.951Z,13.60
2018-03-21T12:42:38.974Z,13.70
2018-03-21T12:43:38.991Z,11.90
2018-03-21T12:44:39.034Z,12.90
2018-03-21T12:45:39.031Z,13.40
2018-03-21T12:46:39.049Z,9.70
2018-03-21T12:47:39.069Z,12.10
2018-03-21T12:48:39.091Z,11.20
2018-03-21T12:49:39.114Z,10.30
2018-03-21T12:50:39.124Z,10.90
2018-03-21T12:51:39.154Z,11.10
2018-03-21T12:52:39.171Z,10.10
2018-03-21T12:53:39.189Z,11.10
2018-03-21T12:54:39.205Z,10.10
2018-03-21T12:55:39.265Z,13.60
2018-03-21T12:56:39.248Z,10.80
2018-03-21T12:57:39.265Z,10.90
2018-03-21T12:58:39.280Z,11.90
2018-03-21T12:59:39.306Z,13.80